Muskegon, MI (49441)

5:53 PM EST on December 26, 2014 (GMT -0500)
Henry St Near Airport | Change Station
CLOSE
Current Station
Personal Weather Station
Location: NortonShores, MI
Elevation: 625 ft
Nearby Weather Stations

Elev 625 ft 43.17 °N, 86.26 °W | Updated 18 seconds ago

Mostly Cloudy
Mostly Cloudy
41.7 °F
Feels Like 39 °F
N
4.7
Wind Variable Wind from South
Gusts 15.7 mph

Today
High -- | Low -- °F
--% Chance of Precip.
Yesterday
High -- | Low -- °F
Precip. -- in
8:15 AM 5:15 PM
Waxing Crescent, 30% visible
Pressure 30.04 in
Visibility 10.0 miles
Clouds Mostly Cloudy 14000 ft
Windchill 39 °F
Dew Point 35 °F
Humidity 78%
Rainfall 0.00 in
Snow Depth Not available.
UV 0 out of 12
Pollen .10 out of 12
Air Quality Not available.
Flu Activity Not available.
METAR KMKG 262155Z 20009KT 10SM BKN140 06/02 A3002 RMK AO2 SLP170 T00560022

More Conditions Fewer Conditions

Pressure 30.04 in
Visibility 10.0 miles
Clouds Mostly Cloudy 14000 ft
Windchill 39 °F
Dew Point 35 °F
Humidity 78%
Rainfall 0.00 in
Snow Depth Not available.
UV 0 out of 12
Pollen .10 out of 12
Air Quality Not available.
Flu Activity Not available.
METAR KMKG 262155Z 20009KT 10SM BKN140 06/02 A3002 RMK AO2 SLP170 T00560022

More Conditions Fewer Conditions

10-Day Weather Forecast

Almanac

Astronomy

Dec. 26, 2014 Rise Set
Actual Time
Civil Twilight
Nautical Twilight
Astronomical Twilight
Moon
Length of Visible Light
Length of Day
Tomorrow will be .
, % of the Moon is Illuminated

Today's Extremes

State Highs State Lows

Community

WunderPhotos

Upload Photos

1,780,746 photos uploaded!

WunderBlogs® & News

Nearby

Air Quality

  Air Quality AQ Index Pollutant
Not available.

Snow Depth

Station Depth Elevation

Earthquake Activity

City Distance Mag. Time & Date
Minimum magnitude displayed is 2.5.

Coastal Water Temperatures

Place Temperature

Nearby Weather Stations